首页
METAR-TAF:

METAR-TAF

机场 :

布鲁塞尔机场

布鲁塞尔, 比利时

纬度: 50-54N, 经度: 004-32E, 海拔: 55米

当前天气观测

该预报发布于25分钟前的13:50 UTC
风速5节,风向西转西南,在南转西南西转西北之间变化
温度 20°C
湿度 73%
气压 1025 hPa
能见度10公里或以上
多云层高于2100英尺

METAR: EBBR 191350Z 25005KT 210V290 9999 BKN021 20/15 Q1025 NOSIG

时间: 16:15 (14:15 UTC)

预报

该预报发布于3小时和9分钟前的11:06 UTC
预报有效从19日的 12点(UTC)到 20日的 18点(UTC)
风速7节,风向西转西南
能见度10公里或以上
散云层高于1800英尺
多云层高于3500英尺
几率 30% :
短暂存在
从 20日的 03点(UTC)到 20日的 07点(UTC)
多云层高于800英尺

TAF: EBBR 191106Z 1912/2018 25007KT 9999 SCT018 BKN035 PROB30 TEMPO 2003/2007 BKN008

超过4000个机场的气象观测和天气预报(METAR&TAF报告)。

可查询的气象台以黄色和红色小点在地图上表示。

将鼠标移到小点上方,可查看气象台名称。

然后点击查看天气观测和预报。

如需切换地图:点击带黑十字的绿色按钮放大地图;点击带横线的绿色按钮缩小地图;或者点击绿色箭头查看邻近地区的地图。


METAR-TAF: